sensor_id;sensor_type;location;lat;lon;timestamp;P1;durP1;ratioP1;P2;durP2;ratioP2
75059;SDS011;63640;59.264;18.116;2023-05-07T00:00:22;11.55;;;4.50;;
75059;SDS011;63640;59.264;18.116;2023-05-07T00:02:48;9.35;;;3.60;;
75059;SDS011;63640;59.264;18.116;2023-05-07T00:05:13;7.82;;;3.70;;
75059;SDS011;63640;59.264;18.116;2023-05-07T00:07:39;11.77;;;3.60;;
75059;SDS011;63640;59.264;18.116;2023-05-07T00:10:05;10.25;;;3.88;;
75059;SDS011;63640;59.264;18.116;2023-05-07T00:12:32;11.93;;;4.22;;
75059;SDS011;63640;59.264;18.116;2023-05-07T00:14:59;12.73;;;4.00;;
75059;SDS011;63640;59.264;18.116;2023-05-07T00:17:25;9.63;;;3.50;;
75059;SDS011;63640;59.264;18.116;2023-05-07T00:19:51;7.03;;;3.50;;
75059;SDS011;63640;59.264;18.116;2023-05-07T00:22:16;12.80;;;4.13;;
75059;SDS011;63640;59.264;18.116;2023-05-07T00:24:42;8.52;;;3.78;;
75059;SDS011;63640;59.264;18.116;2023-05-07T00:27:08;9.75;;;3.17;;
75059;SDS011;63640;59.264;18.116;2023-05-07T00:29:33;12.90;;;4.03;;
75059;SDS011;63640;59.264;18.116;2023-05-07T00:31:59;12.93;;;3.75;;
75059;SDS011;63640;59.264;18.116;2023-05-07T00:34:24;12.55;;;4.95;;
75059;SDS011;63640;59.264;18.116;2023-05-07T00:36:50;10.98;;;3.72;;
75059;SDS011;63640;59.264;18.116;2023-05-07T00:39:16;12.98;;;3.05;;
75059;SDS011;63640;59.264;18.116;2023-05-07T00:41:41;9.63;;;3.58;;
75059;SDS011;63640;59.264;18.116;2023-05-07T00:44:07;7.15;;;3.13;;
75059;SDS011;63640;59.264;18.116;2023-05-07T00:46:33;11.77;;;3.53;;
75059;SDS011;63640;59.264;18.116;2023-05-07T00:48:59;13.98;;;5.25;;
75059;SDS011;63640;59.264;18.116;2023-05-07T00:51:25;7.53;;;3.60;;
75059;SDS011;63640;59.264;18.116;2023-05-07T00:53:52;8.57;;;3.67;;
75059;SDS011;63640;59.264;18.116;2023-05-07T00:56:18;12.60;;;4.30;;
75059;SDS011;63640;59.264;18.116;2023-05-07T00:58:46;10.80;;;4.35;;
75059;SDS011;63640;59.264;18.116;2023-05-07T01:01:12;10.25;;;4.30;;
75059;SDS011;63640;59.264;18.116;2023-05-07T01:03:37;10.65;;;3.38;;
75059;SDS011;63640;59.264;18.116;2023-05-07T01:06:03;10.18;;;3.65;;
75059;SDS011;63640;59.264;18.116;2023-05-07T01:08:29;9.18;;;3.50;;
75059;SDS011;63640;59.264;18.116;2023-05-07T01:10:56;8.82;;;3.72;;
75059;SDS011;63640;59.264;18.116;2023-05-07T01:13:22;12.18;;;4.13;;
75059;SDS011;63640;59.264;18.116;2023-05-07T01:15:48;13.02;;;4.13;;
75059;SDS011;63640;59.264;18.116;2023-05-07T01:18:15;12.50;;;4.43;;
75059;SDS011;63640;59.264;18.116;2023-05-07T01:20:40;9.40;;;4.38;;
75059;SDS011;63640;59.264;18.116;2023-05-07T01:23:07;11.20;;;4.03;;
75059;SDS011;63640;59.264;18.116;2023-05-07T01:25:33;10.98;;;4.20;;
75059;SDS011;63640;59.264;18.116;2023-05-07T01:27:58;11.00;;;4.30;;
75059;SDS011;63640;59.264;18.116;2023-05-07T01:30:27;14.07;;;4.30;;
75059;SDS011;63640;59.264;18.116;2023-05-07T01:32:56;8.40;;;3.80;;
75059;SDS011;63640;59.264;18.116;2023-05-07T01:35:26;12.52;;;5.00;;
75059;SDS011;63640;59.264;18.116;2023-05-07T01:37:54;11.27;;;4.22;;
75059;SDS011;63640;59.264;18.116;2023-05-07T01:40:20;9.13;;;3.83;;
75059;SDS011;63640;59.264;18.116;2023-05-07T01:42:46;9.30;;;4.25;;
75059;SDS011;63640;59.264;18.116;2023-05-07T01:45:13;11.68;;;4.35;;
75059;SDS011;63640;59.264;18.116;2023-05-07T01:47:38;9.65;;;3.97;;
75059;SDS011;63640;59.264;18.116;2023-05-07T01:50:07;12.80;;;3.47;;
75059;SDS011;63640;59.264;18.116;2023-05-07T01:52:35;10.38;;;4.07;;
75059;SDS011;63640;59.264;18.116;2023-05-07T01:55:02;10.32;;;4.63;;
75059;SDS011;63640;59.264;18.116;2023-05-07T01:57:27;11.85;;;4.43;;
75059;SDS011;63640;59.264;18.116;2023-05-07T01:59:53;9.55;;;3.65;;
75059;SDS011;63640;59.264;18.116;2023-05-07T02:02:18;10.20;;;3.78;;
75059;SDS011;63640;59.264;18.116;2023-05-07T02:04:44;8.38;;;4.05;;
75059;SDS011;63640;59.264;18.116;2023-05-07T02:07:09;11.20;;;4.05;;
75059;SDS011;63640;59.264;18.116;2023-05-07T02:09:35;9.52;;;4.05;;
75059;SDS011;63640;59.264;18.116;2023-05-07T02:12:00;14.20;;;4.03;;
75059;SDS011;63640;59.264;18.116;2023-05-07T02:14:26;8.88;;;3.85;;
75059;SDS011;63640;59.264;18.116;2023-05-07T02:16:52;9.30;;;4.03;;
75059;SDS011;63640;59.264;18.116;2023-05-07T02:19:17;10.70;;;4.05;;
75059;SDS011;63640;59.264;18.116;2023-05-07T02:21:43;8.35;;;3.70;;
75059;SDS011;63640;59.264;18.116;2023-05-07T02:24:08;13.75;;;5.25;;
75059;SDS011;63640;59.264;18.116;2023-05-07T02:26:34;9.80;;;3.92;;
75059;SDS011;63640;59.264;18.116;2023-05-07T02:29:00;9.55;;;4.40;;
75059;SDS011;63640;59.264;18.116;2023-05-07T02:31:25;10.55;;;4.00;;
75059;SDS011;63640;59.264;18.116;2023-05-07T02:33:51;9.40;;;3.65;;
75059;SDS011;63640;59.264;18.116;2023-05-07T02:36:16;10.43;;;4.80;;
75059;SDS011;63640;59.264;18.116;2023-05-07T02:38:42;9.50;;;4.20;;
75059;SDS011;63640;59.264;18.116;2023-05-07T02:41:07;8.05;;;3.60;;
75059;SDS011;63640;59.264;18.116;2023-05-07T02:43:33;10.00;;;4.22;;
75059;SDS011;63640;59.264;18.116;2023-05-07T02:46:05;8.57;;;3.60;;
75059;SDS011;63640;59.264;18.116;2023-05-07T02:48:32;10.48;;;3.60;;
75059;SDS011;63640;59.264;18.116;2023-05-07T02:50:58;10.40;;;3.88;;
75059;SDS011;63640;59.264;18.116;2023-05-07T02:53:24;8.98;;;3.42;;
75059;SDS011;63640;59.264;18.116;2023-05-07T02:55:53;13.13;;;3.28;;
75059;SDS011;63640;59.264;18.116;2023-05-07T02:58:18;10.20;;;4.47;;
75059;SDS011;63640;59.264;18.116;2023-05-07T03:00:44;7.78;;;3.45;;
75059;SDS011;63640;59.264;18.116;2023-05-07T03:03:10;8.98;;;3.80;;
75059;SDS011;63640;59.264;18.116;2023-05-07T03:05:36;10.48;;;3.65;;
75059;SDS011;63640;59.264;18.116;2023-05-07T03:08:01;9.27;;;3.47;;
75059;SDS011;63640;59.264;18.116;2023-05-07T03:10:27;10.27;;;4.28;;
75059;SDS011;63640;59.264;18.116;2023-05-07T03:12:53;7.45;;;3.35;;
75059;SDS011;63640;59.264;18.116;2023-05-07T03:15:18;12.88;;;4.25;;
75059;SDS011;63640;59.264;18.116;2023-05-07T03:17:44;7.57;;;3.28;;
75059;SDS011;63640;59.264;18.116;2023-05-07T03:20:09;9.35;;;3.80;;
75059;SDS011;63640;59.264;18.116;2023-05-07T03:22:35;9.00;;;4.20;;
75059;SDS011;63640;59.264;18.116;2023-05-07T03:25:01;15.70;;;3.83;;
75059;SDS011;63640;59.264;18.116;2023-05-07T03:27:26;8.93;;;3.25;;
75059;SDS011;63640;59.264;18.116;2023-05-07T03:29:52;10.93;;;4.13;;
75059;SDS011;63640;59.264;18.116;2023-05-07T03:32:17;11.10;;;3.70;;
75059;SDS011;63640;59.264;18.116;2023-05-07T03:34:43;12.05;;;3.95;;
75059;SDS011;63640;59.264;18.116;2023-05-07T03:37:08;8.95;;;3.88;;
75059;SDS011;63640;59.264;18.116;2023-05-07T03:39:34;10.80;;;3.85;;
75059;SDS011;63640;59.264;18.116;2023-05-07T03:42:00;10.95;;;3.97;;
75059;SDS011;63640;59.264;18.116;2023-05-07T03:44:26;10.40;;;3.95;;
75059;SDS011;63640;59.264;18.116;2023-05-07T03:46:51;8.13;;;3.55;;
75059;SDS011;63640;59.264;18.116;2023-05-07T03:49:17;13.00;;;4.28;;
75059;SDS011;63640;59.264;18.116;2023-05-07T03:51:42;9.98;;;3.83;;
75059;SDS011;63640;59.264;18.116;2023-05-07T03:54:08;13.70;;;4.13;;
75059;SDS011;63640;59.264;18.116;2023-05-07T03:56:33;13.05;;;4.25;;
75059;SDS011;63640;59.264;18.116;2023-05-07T03:58:59;8.95;;;4.13;;
75059;SDS011;63640;59.264;18.116;2023-05-07T04:01:25;11.82;;;5.47;;
75059;SDS011;63640;59.264;18.116;2023-05-07T04:03:51;11.38;;;4.60;;
75059;SDS011;63640;59.264;18.116;2023-05-07T04:06:16;10.57;;;4.93;;
75059;SDS011;63640;59.264;18.116;2023-05-07T04:08:42;11.73;;;4.10;;
75059;SDS011;63640;59.264;18.116;2023-05-07T04:11:08;13.40;;;4.10;;
75059;SDS011;63640;59.264;18.116;2023-05-07T04:13:34;8.20;;;3.70;;
75059;SDS011;63640;59.264;18.116;2023-05-07T04:16:00;15.82;;;4.25;;
75059;SDS011;63640;59.264;18.116;2023-05-07T04:18:27;14.70;;;3.67;;
75059;SDS011;63640;59.264;18.116;2023-05-07T04:20:52;9.38;;;4.20;;
75059;SDS011;63640;59.264;18.116;2023-05-07T04:23:18;11.95;;;3.80;;
75059;SDS011;63640;59.264;18.116;2023-05-07T04:25:43;9.85;;;4.20;;
75059;SDS011;63640;59.264;18.116;2023-05-07T04:28:09;11.13;;;4.03;;
75059;SDS011;63640;59.264;18.116;2023-05-07T04:30:34;10.07;;;3.83;;
75059;SDS011;63640;59.264;18.116;2023-05-07T04:33:00;10.48;;;4.38;;
75059;SDS011;63640;59.264;18.116;2023-05-07T04:35:26;10.45;;;4.60;;
75059;SDS011;63640;59.264;18.116;2023-05-07T04:37:51;7.15;;;3.53;;
75059;SDS011;63640;59.264;18.116;2023-05-07T04:40:17;12.27;;;4.10;;
75059;SDS011;63640;59.264;18.116;2023-05-07T04:42:42;9.32;;;3.72;;
75059;SDS011;63640;59.264;18.116;2023-05-07T04:45:08;8.95;;;3.72;;
75059;SDS011;63640;59.264;18.116;2023-05-07T04:47:35;7.63;;;3.22;;
75059;SDS011;63640;59.264;18.116;2023-05-07T04:50:01;9.15;;;3.88;;
75059;SDS011;63640;59.264;18.116;2023-05-07T04:52:26;7.93;;;3.60;;
75059;SDS011;63640;59.264;18.116;2023-05-07T04:54:52;8.85;;;3.50;;
75059;SDS011;63640;59.264;18.116;2023-05-07T04:57:17;7.68;;;3.55;;
75059;SDS011;63640;59.264;18.116;2023-05-07T04:59:43;7.43;;;3.20;;
75059;SDS011;63640;59.264;18.116;2023-05-07T05:02:12;9.40;;;3.38;;
75059;SDS011;63640;59.264;18.116;2023-05-07T05:04:38;8.68;;;3.10;;
75059;SDS011;63640;59.264;18.116;2023-05-07T05:07:03;7.10;;;2.60;;
75059;SDS011;63640;59.264;18.116;2023-05-07T05:09:29;7.93;;;3.33;;
75059;SDS011;63640;59.264;18.116;2023-05-07T05:11:55;8.23;;;2.72;;
75059;SDS011;63640;59.264;18.116;2023-05-07T05:14:21;7.00;;;3.00;;
75059;SDS011;63640;59.264;18.116;2023-05-07T05:16:46;5.22;;;2.38;;
75059;SDS011;63640;59.264;18.116;2023-05-07T05:19:12;6.20;;;2.60;;
75059;SDS011;63640;59.264;18.116;2023-05-07T05:21:37;5.55;;;2.05;;
75059;SDS011;63640;59.264;18.116;2023-05-07T05:24:03;5.43;;;2.38;;
75059;SDS011;63640;59.264;18.116;2023-05-07T05:26:28;4.80;;;1.92;;
75059;SDS011;63640;59.264;18.116;2023-05-07T05:28:54;6.68;;;2.17;;
75059;SDS011;63640;59.264;18.116;2023-05-07T05:31:19;4.93;;;2.10;;
75059;SDS011;63640;59.264;18.116;2023-05-07T05:33:45;5.93;;;1.83;;
75059;SDS011;63640;59.264;18.116;2023-05-07T05:36:10;4.95;;;1.80;;
75059;SDS011;63640;59.264;18.116;2023-05-07T05:38:37;4.47;;;1.75;;
75059;SDS011;63640;59.264;18.116;2023-05-07T05:41:03;4.55;;;1.63;;
75059;SDS011;63640;59.264;18.116;2023-05-07T05:43:29;5.32;;;1.83;;
75059;SDS011;63640;59.264;18.116;2023-05-07T05:45:55;5.25;;;2.17;;
75059;SDS011;63640;59.264;18.116;2023-05-07T05:48:21;6.38;;;1.70;;
75059;SDS011;63640;59.264;18.116;2023-05-07T05:50:47;5.25;;;1.73;;
75059;SDS011;63640;59.264;18.116;2023-05-07T05:53:13;5.00;;;1.70;;
75059;SDS011;63640;59.264;18.116;2023-05-07T05:55:38;4.00;;;1.33;;
75059;SDS011;63640;59.264;18.116;2023-05-07T05:58:04;4.70;;;1.50;;
75059;SDS011;63640;59.264;18.116;2023-05-07T06:00:30;5.03;;;1.77;;
75059;SDS011;63640;59.264;18.116;2023-05-07T06:02:55;4.85;;;2.05;;
75059;SDS011;63640;59.264;18.116;2023-05-07T06:05:21;5.65;;;1.73;;
75059;SDS011;63640;59.264;18.116;2023-05-07T06:07:46;4.32;;;1.58;;
75059;SDS011;63640;59.264;18.116;2023-05-07T06:10:12;4.10;;;1.70;;
75059;SDS011;63640;59.264;18.116;2023-05-07T06:12:38;4.97;;;1.70;;
75059;SDS011;63640;59.264;18.116;2023-05-07T06:15:03;5.47;;;1.60;;
75059;SDS011;63640;59.264;18.116;2023-05-07T06:17:29;5.20;;;1.50;;
75059;SDS011;63640;59.264;18.116;2023-05-07T06:19:55;3.72;;;1.48;;
75059;SDS011;63640;59.264;18.116;2023-05-07T06:22:21;5.30;;;1.73;;
75059;SDS011;63640;59.264;18.116;2023-05-07T06:24:46;5.65;;;1.60;;
75059;SDS011;63640;59.264;18.116;2023-05-07T06:27:12;4.85;;;1.60;;
75059;SDS011;63640;59.264;18.116;2023-05-07T06:29:37;4.22;;;1.48;;
75059;SDS011;63640;59.264;18.116;2023-05-07T06:32:21;4.78;;;1.30;;
75059;SDS011;63640;59.264;18.116;2023-05-07T06:34:47;4.38;;;1.23;;
75059;SDS011;63640;59.264;18.116;2023-05-07T06:37:12;3.53;;;1.42;;
75059;SDS011;63640;59.264;18.116;2023-05-07T06:39:38;3.30;;;1.52;;
75059;SDS011;63640;59.264;18.116;2023-05-07T06:42:03;4.40;;;1.40;;
75059;SDS011;63640;59.264;18.116;2023-05-07T06:44:29;3.63;;;1.00;;
75059;SDS011;63640;59.264;18.116;2023-05-07T06:46:55;3.17;;;1.23;;
75059;SDS011;63640;59.264;18.116;2023-05-07T06:49:21;5.20;;;1.10;;
75059;SDS011;63640;59.264;18.116;2023-05-07T06:51:47;3.35;;;1.27;;
75059;SDS011;63640;59.264;18.116;2023-05-07T06:54:12;3.45;;;1.40;;
75059;SDS011;63640;59.264;18.116;2023-05-07T06:56:38;4.40;;;1.42;;
75059;SDS011;63640;59.264;18.116;2023-05-07T06:59:04;3.30;;;1.27;;
75059;SDS011;63640;59.264;18.116;2023-05-07T07:01:29;5.22;;;1.50;;
75059;SDS011;63640;59.264;18.116;2023-05-07T07:03:55;3.40;;;1.20;;
75059;SDS011;63640;59.264;18.116;2023-05-07T07:06:20;3.08;;;1.10;;
75059;SDS011;63640;59.264;18.116;2023-05-07T07:08:46;5.43;;;1.83;;
75059;SDS011;63640;59.264;18.116;2023-05-07T07:11:11;5.32;;;1.52;;
75059;SDS011;63640;59.264;18.116;2023-05-07T07:13:37;3.33;;;1.30;;
75059;SDS011;63640;59.264;18.116;2023-05-07T07:16:03;3.60;;;1.35;;
75059;SDS011;63640;59.264;18.116;2023-05-07T07:18:28;4.15;;;1.20;;
75059;SDS011;63640;59.264;18.116;2023-05-07T07:20:54;3.53;;;1.30;;
75059;SDS011;63640;59.264;18.116;2023-05-07T07:23:19;3.45;;;1.42;;
75059;SDS011;63640;59.264;18.116;2023-05-07T07:25:45;5.30;;;1.50;;
75059;SDS011;63640;59.264;18.116;2023-05-07T07:28:11;4.38;;;1.40;;
75059;SDS011;63640;59.264;18.116;2023-05-07T07:30:36;4.10;;;1.10;;
75059;SDS011;63640;59.264;18.116;2023-05-07T07:33:02;3.40;;;1.33;;
75059;SDS011;63640;59.264;18.116;2023-05-07T07:35:29;3.47;;;1.30;;
75059;SDS011;63640;59.264;18.116;2023-05-07T07:37:55;4.40;;;1.50;;
75059;SDS011;63640;59.264;18.116;2023-05-07T07:40:20;5.68;;;1.42;;
75059;SDS011;63640;59.264;18.116;2023-05-07T07:42:46;4.82;;;1.75;;
75059;SDS011;63640;59.264;18.116;2023-05-07T07:45:11;4.93;;;1.70;;
75059;SDS011;63640;59.264;18.116;2023-05-07T07:47:38;4.72;;;1.88;;
75059;SDS011;63640;59.264;18.116;2023-05-07T07:50:04;6.70;;;1.70;;
75059;SDS011;63640;59.264;18.116;2023-05-07T07:52:30;8.40;;;1.52;;
75059;SDS011;63640;59.264;18.116;2023-05-07T07:54:56;3.25;;;1.25;;
75059;SDS011;63640;59.264;18.116;2023-05-07T07:57:21;4.10;;;1.20;;
75059;SDS011;63640;59.264;18.116;2023-05-07T07:59:47;4.55;;;1.30;;
75059;SDS011;63640;59.264;18.116;2023-05-07T08:02:12;5.93;;;1.42;;
75059;SDS011;63640;59.264;18.116;2023-05-07T08:04:38;5.97;;;1.50;;
75059;SDS011;63640;59.264;18.116;2023-05-07T08:07:03;4.50;;;1.73;;
75059;SDS011;63640;59.264;18.116;2023-05-07T08:09:29;4.32;;;1.25;;
75059;SDS011;63640;59.264;18.116;2023-05-07T08:11:54;4.32;;;1.52;;
75059;SDS011;63640;59.264;18.116;2023-05-07T08:14:20;5.10;;;1.33;;
75059;SDS011;63640;59.264;18.116;2023-05-07T08:16:45;3.17;;;1.17;;
75059;SDS011;63640;59.264;18.116;2023-05-07T08:19:11;5.35;;;1.23;;
75059;SDS011;63640;59.264;18.116;2023-05-07T08:21:39;4.30;;;1.30;;
75059;SDS011;63640;59.264;18.116;2023-05-07T08:24:05;3.22;;;1.20;;
75059;SDS011;63640;59.264;18.116;2023-05-07T08:26:31;4.60;;;1.30;;
75059;SDS011;63640;59.264;18.116;2023-05-07T08:28:56;4.93;;;1.35;;
75059;SDS011;63640;59.264;18.116;2023-05-07T08:31:22;2.35;;;1.02;;
75059;SDS011;63640;59.264;18.116;2023-05-07T08:33:47;3.53;;;1.38;;
75059;SDS011;63640;59.264;18.116;2023-05-07T08:36:13;4.90;;;1.25;;
75059;SDS011;63640;59.264;18.116;2023-05-07T08:38:38;3.47;;;1.38;;
75059;SDS011;63640;59.264;18.116;2023-05-07T08:41:05;4.45;;;1.35;;
75059;SDS011;63640;59.264;18.116;2023-05-07T08:43:32;4.47;;;1.30;;
75059;SDS011;63640;59.264;18.116;2023-05-07T08:45:58;3.20;;;1.20;;
75059;SDS011;63640;59.264;18.116;2023-05-07T08:48:25;3.95;;;1.23;;
75059;SDS011;63640;59.264;18.116;2023-05-07T08:50:52;3.63;;;1.25;;
75059;SDS011;63640;59.264;18.116;2023-05-07T08:53:18;6.03;;;1.42;;
75059;SDS011;63640;59.264;18.116;2023-05-07T08:55:45;4.05;;;1.27;;
75059;SDS011;63640;59.264;18.116;2023-05-07T08:58:11;3.80;;;1.40;;
75059;SDS011;63640;59.264;18.116;2023-05-07T09:00:36;4.47;;;1.33;;
75059;SDS011;63640;59.264;18.116;2023-05-07T09:03:03;4.60;;;1.40;;
75059;SDS011;63640;59.264;18.116;2023-05-07T09:05:28;4.10;;;1.33;;
75059;SDS011;63640;59.264;18.116;2023-05-07T09:07:54;3.22;;;1.42;;
75059;SDS011;63640;59.264;18.116;2023-05-07T09:10:20;4.10;;;1.52;;
75059;SDS011;63640;59.264;18.116;2023-05-07T09:12:46;3.90;;;1.25;;
75059;SDS011;63640;59.264;18.116;2023-05-07T09:15:13;4.10;;;1.50;;
75059;SDS011;63640;59.264;18.116;2023-05-07T09:17:38;3.75;;;1.38;;
75059;SDS011;63640;59.264;18.116;2023-05-07T09:20:04;4.70;;;1.50;;
75059;SDS011;63640;59.264;18.116;2023-05-07T09:22:36;5.22;;;1.23;;
75059;SDS011;63640;59.264;18.116;2023-05-07T09:27:27;3.65;;;1.42;;
75059;SDS011;63640;59.264;18.116;2023-05-07T09:29:52;2.85;;;1.20;;
75059;SDS011;63640;59.264;18.116;2023-05-07T09:32:18;3.15;;;1.17;;
75059;SDS011;63640;59.264;18.116;2023-05-07T09:34:44;5.07;;;1.30;;
75059;SDS011;63640;59.264;18.116;2023-05-07T09:37:10;4.82;;;1.48;;
75059;SDS011;63640;59.264;18.116;2023-05-07T09:39:44;4.75;;;1.40;;
75059;SDS011;63640;59.264;18.116;2023-05-07T09:42:11;4.47;;;1.20;;
75059;SDS011;63640;59.264;18.116;2023-05-07T09:44:38;5.55;;;1.45;;
75059;SDS011;63640;59.264;18.116;2023-05-07T09:47:06;3.63;;;1.25;;
75059;SDS011;63640;59.264;18.116;2023-05-07T09:49:33;3.70;;;1.42;;
75059;SDS011;63640;59.264;18.116;2023-05-07T09:52:01;3.95;;;1.73;;
75059;SDS011;63640;59.264;18.116;2023-05-07T09:54:27;4.38;;;1.42;;
75059;SDS011;63640;59.264;18.116;2023-05-07T09:56:56;5.97;;;1.20;;
75059;SDS011;63640;59.264;18.116;2023-05-07T09:59:22;4.45;;;1.35;;
75059;SDS011;63640;59.264;18.116;2023-05-07T10:01:48;4.78;;;1.77;;
75059;SDS011;63640;59.264;18.116;2023-05-07T10:04:14;4.70;;;1.40;;
75059;SDS011;63640;59.264;18.116;2023-05-07T10:06:40;5.32;;;1.60;;
75059;SDS011;63640;59.264;18.116;2023-05-07T10:09:06;7.80;;;1.63;;
75059;SDS011;63640;59.264;18.116;2023-05-07T10:11:33;4.07;;;1.27;;
75059;SDS011;63640;59.264;18.116;2023-05-07T10:13:59;5.03;;;1.40;;
75059;SDS011;63640;59.264;18.116;2023-05-07T10:16:27;4.40;;;1.30;;
75059;SDS011;63640;59.264;18.116;2023-05-07T10:18:56;4.53;;;1.33;;
75059;SDS011;63640;59.264;18.116;2023-05-07T10:21:23;3.35;;;1.23;;
75059;SDS011;63640;59.264;18.116;2023-05-07T10:23:50;3.97;;;1.20;;
75059;SDS011;63640;59.264;18.116;2023-05-07T10:26:17;5.65;;;1.23;;
75059;SDS011;63640;59.264;18.116;2023-05-07T10:28:44;2.90;;;1.08;;
75059;SDS011;63640;59.264;18.116;2023-05-07T10:33:56;5.05;;;1.45;;
75059;SDS011;63640;59.264;18.116;2023-05-07T10:36:22;4.35;;;1.42;;
75059;SDS011;63640;59.264;18.116;2023-05-07T10:38:48;4.32;;;1.40;;
75059;SDS011;63640;59.264;18.116;2023-05-07T10:41:13;5.05;;;1.50;;
75059;SDS011;63640;59.264;18.116;2023-05-07T10:43:44;4.68;;;1.35;;
75059;SDS011;63640;59.264;18.116;2023-05-07T10:46:10;4.07;;;1.30;;
75059;SDS011;63640;59.264;18.116;2023-05-07T10:51:33;4.03;;;1.20;;
75059;SDS011;63640;59.264;18.116;2023-05-07T10:56:34;4.68;;;1.30;;
75059;SDS011;63640;59.264;18.116;2023-05-07T11:01:56;5.57;;;1.48;;
75059;SDS011;63640;59.264;18.116;2023-05-07T11:04:23;4.15;;;1.40;;
75059;SDS011;63640;59.264;18.116;2023-05-07T11:12:17;4.43;;;1.50;;
75059;SDS011;63640;59.264;18.116;2023-05-07T11:15:04;3.45;;;1.20;;
75059;SDS011;63640;59.264;18.116;2023-05-07T11:17:30;3.50;;;1.25;;
75059;SDS011;63640;59.264;18.116;2023-05-07T11:19:57;6.10;;;1.40;;
75059;SDS011;63640;59.264;18.116;2023-05-07T11:22:44;3.92;;;1.30;;
75059;SDS011;63640;59.264;18.116;2023-05-07T11:25:08;3.30;;;1.23;;
75059;SDS011;63640;59.264;18.116;2023-05-07T11:27:34;5.20;;;1.40;;
75059;SDS011;63640;59.264;18.116;2023-05-07T11:29:59;5.15;;;1.30;;
75059;SDS011;63640;59.264;18.116;2023-05-07T11:32:29;7.18;;;1.50;;
75059;SDS011;63640;59.264;18.116;2023-05-07T11:34:55;4.00;;;1.20;;
75059;SDS011;63640;59.264;18.116;2023-05-07T11:37:22;8.23;;;1.35;;
75059;SDS011;63640;59.264;18.116;2023-05-07T11:39:48;4.95;;;1.33;;
75059;SDS011;63640;59.264;18.116;2023-05-07T11:44:51;4.47;;;1.40;;
75059;SDS011;63640;59.264;18.116;2023-05-07T11:47:17;4.80;;;1.42;;
75059;SDS011;63640;59.264;18.116;2023-05-07T11:49:45;4.78;;;1.20;;
75059;SDS011;63640;59.264;18.116;2023-05-07T11:52:14;3.92;;;1.48;;
75059;SDS011;63640;59.264;18.116;2023-05-07T11:54:41;3.97;;;1.20;;
75059;SDS011;63640;59.264;18.116;2023-05-07T11:57:06;3.03;;;1.02;;
75059;SDS011;63640;59.264;18.116;2023-05-07T11:59:39;5.45;;;1.30;;
75059;SDS011;63640;59.264;18.116;2023-05-07T12:02:16;4.47;;;1.48;;
75059;SDS011;63640;59.264;18.116;2023-05-07T12:04:42;4.63;;;1.25;;
75059;SDS011;63640;59.264;18.116;2023-05-07T12:07:12;3.53;;;1.10;;
75059;SDS011;63640;59.264;18.116;2023-05-07T12:09:41;5.15;;;1.20;;
75059;SDS011;63640;59.264;18.116;2023-05-07T12:12:08;4.00;;;1.50;;
75059;SDS011;63640;59.264;18.116;2023-05-07T12:14:37;4.20;;;1.20;;
75059;SDS011;63640;59.264;18.116;2023-05-07T12:17:04;5.00;;;1.63;;
75059;SDS011;63640;59.264;18.116;2023-05-07T12:19:30;4.03;;;1.30;;
75059;SDS011;63640;59.264;18.116;2023-05-07T12:21:56;5.25;;;1.50;;
75059;SDS011;63640;59.264;18.116;2023-05-07T12:24:21;3.75;;;1.30;;
75059;SDS011;63640;59.264;18.116;2023-05-07T12:26:47;6.78;;;1.30;;
75059;SDS011;63640;59.264;18.116;2023-05-07T12:29:13;3.80;;;1.23;;
75059;SDS011;63640;59.264;18.116;2023-05-07T12:31:42;3.38;;;1.20;;
75059;SDS011;63640;59.264;18.116;2023-05-07T12:34:08;3.78;;;1.50;;
75059;SDS011;63640;59.264;18.116;2023-05-07T12:36:39;3.15;;;1.00;;
75059;SDS011;63640;59.264;18.116;2023-05-07T12:39:05;4.63;;;1.33;;
75059;SDS011;63640;59.264;18.116;2023-05-07T12:41:35;6.05;;;1.45;;
75059;SDS011;63640;59.264;18.116;2023-05-07T12:44:03;5.53;;;1.23;;
75059;SDS011;63640;59.264;18.116;2023-05-07T12:46:30;5.85;;;1.50;;
75059;SDS011;63640;59.264;18.116;2023-05-07T12:48:56;3.67;;;1.17;;
75059;SDS011;63640;59.264;18.116;2023-05-07T12:51:21;5.97;;;1.20;;
75059;SDS011;63640;59.264;18.116;2023-05-07T12:53:47;5.90;;;1.20;;
75059;SDS011;63640;59.264;18.116;2023-05-07T12:56:12;4.55;;;1.30;;
75059;SDS011;63640;59.264;18.116;2023-05-07T12:58:40;4.13;;;1.30;;
75059;SDS011;63640;59.264;18.116;2023-05-07T13:01:07;4.13;;;1.17;;
75059;SDS011;63640;59.264;18.116;2023-05-07T13:03:34;5.53;;;1.40;;
75059;SDS011;63640;59.264;18.116;2023-05-07T13:06:08;4.28;;;1.10;;
75059;SDS011;63640;59.264;18.116;2023-05-07T13:08:41;5.57;;;1.50;;
75059;SDS011;63640;59.264;18.116;2023-05-07T13:11:09;4.57;;;1.10;;
75059;SDS011;63640;59.264;18.116;2023-05-07T13:13:35;3.13;;;1.10;;
75059;SDS011;63640;59.264;18.116;2023-05-07T13:16:02;4.28;;;1.15;;
75059;SDS011;63640;59.264;18.116;2023-05-07T13:18:29;5.40;;;1.17;;
75059;SDS011;63640;59.264;18.116;2023-05-07T13:20:55;6.13;;;1.38;;
75059;SDS011;63640;59.264;18.116;2023-05-07T13:23:21;5.70;;;1.20;;
75059;SDS011;63640;59.264;18.116;2023-05-07T13:25:47;4.90;;;1.40;;
75059;SDS011;63640;59.264;18.116;2023-05-07T13:28:13;5.93;;;1.40;;
75059;SDS011;63640;59.264;18.116;2023-05-07T13:30:39;3.40;;;1.10;;
75059;SDS011;63640;59.264;18.116;2023-05-07T13:33:05;4.20;;;1.02;;
75059;SDS011;63640;59.264;18.116;2023-05-07T13:35:31;5.90;;;1.50;;
75059;SDS011;63640;59.264;18.116;2023-05-07T13:37:57;4.40;;;1.10;;
75059;SDS011;63640;59.264;18.116;2023-05-07T13:40:22;3.13;;;1.10;;
75059;SDS011;63640;59.264;18.116;2023-05-07T13:42:48;6.47;;;1.40;;
75059;SDS011;63640;59.264;18.116;2023-05-07T13:45:15;4.90;;;1.33;;
75059;SDS011;63640;59.264;18.116;2023-05-07T13:47:43;4.93;;;1.35;;
75059;SDS011;63640;59.264;18.116;2023-05-07T13:50:10;4.75;;;1.20;;
75059;SDS011;63640;59.264;18.116;2023-05-07T13:52:40;4.30;;;1.52;;
75059;SDS011;63640;59.264;18.116;2023-05-07T13:55:08;3.75;;;1.30;;
75059;SDS011;63640;59.264;18.116;2023-05-07T13:57:34;3.95;;;1.30;;
75059;SDS011;63640;59.264;18.116;2023-05-07T14:00:00;2.50;;;0.93;;
75059;SDS011;63640;59.264;18.116;2023-05-07T14:02:25;5.65;;;1.35;;
75059;SDS011;63640;59.264;18.116;2023-05-07T14:04:51;5.25;;;1.30;;
75059;SDS011;63640;59.264;18.116;2023-05-07T14:07:17;4.65;;;1.23;;
75059;SDS011;63640;59.264;18.116;2023-05-07T14:09:42;4.53;;;1.30;;
75059;SDS011;63640;59.264;18.116;2023-05-07T14:12:08;5.03;;;1.20;;
75059;SDS011;63640;59.264;18.116;2023-05-07T14:14:33;4.32;;;1.20;;
75059;SDS011;63640;59.264;18.116;2023-05-07T14:16:59;5.50;;;1.50;;
75059;SDS011;63640;59.264;18.116;2023-05-07T14:19:24;5.25;;;1.30;;
75059;SDS011;63640;59.264;18.116;2023-05-07T14:21:49;5.18;;;1.30;;
75059;SDS011;63640;59.264;18.116;2023-05-07T14:24:15;3.25;;;1.10;;
75059;SDS011;63640;59.264;18.116;2023-05-07T14:26:40;11.77;;;1.80;;
75059;SDS011;63640;59.264;18.116;2023-05-07T14:29:06;6.30;;;1.33;;
75059;SDS011;63640;59.264;18.116;2023-05-07T14:31:31;4.60;;;1.20;;
75059;SDS011;63640;59.264;18.116;2023-05-07T14:33:58;5.22;;;1.23;;
75059;SDS011;63640;59.264;18.116;2023-05-07T14:36:24;3.80;;;1.17;;
75059;SDS011;63640;59.264;18.116;2023-05-07T14:38:51;4.00;;;1.10;;
75059;SDS011;63640;59.264;18.116;2023-05-07T14:41:19;6.05;;;1.38;;
75059;SDS011;63640;59.264;18.116;2023-05-07T14:43:46;5.78;;;1.35;;
75059;SDS011;63640;59.264;18.116;2023-05-07T14:46:18;4.22;;;1.20;;